Time;durP1;ratioP1;P1;durP2;ratioP2;P2;SDS_P1;SDS_P2;PMS_P1;PMS_P2;Temp;Humidity;BMP_temperature;BMP_pressure;BME280_temperature;BME280_humidity;BME280_pressure;Samples;Min_cycle;Max_cycle;Signal;HPM_P1;HPM_P2
2021/05/22 00:00:54;;;;;;;7.70;5.57;;;;;;;18.94;58.61;99690.91;2069891;28;20041;-65
2021/05/22 00:01:55;;;;;;;6.43;5.40;;;;;;;18.95;58.50;99696.19;2070298;28;20087;-66
2021/05/22 00:02:55;;;;;;;6.30;5.00;;;;;;;18.94;58.63;99693.63;2067281;28;20037;-65
2021/05/22 00:03:56;;;;;;;7.53;4.90;;;;;;;18.94;58.42;99685.44;2068924;28;20101;-65
2021/05/22 00:04:56;;;;;;;6.40;5.47;;;;;;;18.94;58.44;99683.56;2070537;28;20048;-65
2021/05/22 00:05:57;;;;;;;8.33;5.50;;;;;;;18.94;58.43;99683.56;2072744;28;20121;-65
2021/05/22 00:06:57;;;;;;;7.47;4.73;;;;;;;18.95;58.61;99678.94;2069775;28;20124;-65
2021/05/22 00:07:58;;;;;;;9.27;5.40;;;;;;;18.93;58.68;99676.34;2070118;28;20071;-64
2021/05/22 00:08:58;;;;;;;7.03;5.37;;;;;;;18.94;58.63;99682.69;2070820;28;20022;-65
2021/05/22 00:09:59;;;;;;;7.60;4.90;;;;;;;18.93;58.68;99681.81;2074392;28;20041;-65
2021/05/22 00:10:59;;;;;;;14.50;5.30;;;;;;;18.92;58.44;99673.81;2078555;28;20029;-65
2021/05/22 00:12:00;;;;;;;7.37;5.93;;;;;;;18.94;58.54;99682.69;2083026;28;20031;-65
2021/05/22 00:13:00;;;;;;;7.20;5.20;;;;;;;18.93;58.67;99673.63;2077179;28;20275;-65
2021/05/22 00:14:05;;;;;;;7.00;5.73;;;;;;;18.92;58.69;99671.91;2081767;28;20033;-65
2021/05/22 00:15:07;;;;;;;6.97;4.97;;;;;;;18.93;58.59;99680.97;2072631;28;20112;-65
2021/05/22 00:16:08;;;;;;;6.25;4.72;;;;;;;18.92;58.72;99671.91;2076783;28;20026;-65
2021/05/22 00:17:08;;;;;;;7.53;5.23;;;;;;;18.91;58.57;99659.28;2077974;28;20136;-65
2021/05/22 00:18:09;;;;;;;6.20;4.73;;;;;;;18.92;58.67;99657.41;2078654;28;20068;-66
2021/05/22 00:19:09;;;;;;;7.03;4.70;;;;;;;18.92;58.67;99651.97;2078407;28;20049;-65
2021/05/22 00:20:11;;;;;;;6.20;5.07;;;;;;;18.91;58.74;99655.69;2074659;28;20048;-65
2021/05/22 00:21:11;;;;;;;7.18;5.10;;;;;;;18.92;58.71;99649.22;2077971;28;20027;-64
2021/05/22 00:22:12;;;;;;;6.97;5.27;;;;;;;18.91;58.64;99650.22;2077096;28;20040;-65
2021/05/22 00:23:14;;;;;;;5.80;4.43;;;;;;;18.91;58.75;99644.75;2076173;28;20061;-65
2021/05/22 00:24:14;;;;;;;7.63;5.32;;;;;;;18.90;58.77;99643.91;2077309;28;20102;-65
2021/05/22 00:25:15;;;;;;;7.30;5.23;;;;;;;18.90;58.66;99645.78;2078100;28;21003;-65
2021/05/22 00:26:15;;;;;;;6.67;5.23;;;;;;;18.91;58.75;99651.06;2076365;28;20037;-65
2021/05/22 00:27:16;;;;;;;5.73;4.87;;;;;;;18.91;58.68;99650.22;2076873;28;20026;-65
2021/05/22 00:28:16;;;;;;;7.17;5.47;;;;;;;18.91;58.81;99651.06;2074093;28;20052;-65
2021/05/22 00:29:17;;;;;;;7.23;5.57;;;;;;;18.91;58.67;99650.22;2081632;28;20036;-65
2021/05/22 00:30:18;;;;;;;8.50;4.97;;;;;;;18.91;58.80;99640.16;2078503;28;20032;-65
2021/05/22 00:31:18;;;;;;;5.70;4.70;;;;;;;18.90;58.79;99645.78;2078565;28;20037;-65
2021/05/22 00:32:19;;;;;;;6.87;5.13;;;;;;;18.90;58.73;99643.91;2083045;28;20025;-65
2021/05/22 00:33:19;;;;;;;8.37;4.37;;;;;;;18.90;58.70;99637.59;2072931;28;20101;-65
2021/05/22 00:34:20;;;;;;;6.90;4.80;;;;;;;18.90;58.77;99643.91;2078187;28;20038;-65
2021/05/22 00:35:20;;;;;;;6.77;5.03;;;;;;;18.90;58.88;99643.91;2073004;28;20596;-66
2021/05/22 00:36:21;;;;;;;6.10;4.80;;;;;;;18.90;58.76;99638.44;2077700;28;20586;-65
2021/05/22 00:37:21;;;;;;;5.53;4.90;;;;;;;18.89;58.73;99635.88;2078719;28;20048;-65
2021/05/22 00:38:22;;;;;;;7.27;5.00;;;;;;;18.89;58.69;99628.56;2070830;28;20037;-65
2021/05/22 00:39:22;;;;;;;6.13;4.77;;;;;;;18.89;58.81;99631.28;2075362;28;20064;-65
2021/05/22 00:40:23;;;;;;;6.37;5.00;;;;;;;18.89;58.77;99620.38;2072597;28;20037;-65
2021/05/22 00:41:24;;;;;;;6.37;5.30;;;;;;;18.88;58.76;99618.63;2078492;28;20041;-65
2021/05/22 00:42:24;;;;;;;5.53;4.83;;;;;;;18.88;58.72;99613.16;2078287;28;20110;-65
2021/05/22 00:43:25;;;;;;;6.40;4.90;;;;;;;18.89;58.75;99614.03;2078379;28;20041;-65
2021/05/22 00:44:30;;;;;;;6.43;4.63;;;;;;;18.90;58.67;99616.59;2067458;28;20421;-65
2021/05/22 00:45:31;;;;;;;6.85;4.80;;;;;;;18.89;58.66;99612.16;2072121;28;20164;-65
2021/05/22 00:46:32;;;;;;;6.83;4.70;;;;;;;18.90;58.72;99610.28;2079221;28;20021;-65
2021/05/22 00:47:33;;;;;;;5.87;4.73;;;;;;;18.90;58.77;99604.81;2074052;28;21003;-65
2021/05/22 00:48:33;;;;;;;7.35;4.85;;;;;;;18.90;58.74;99613.03;2073228;28;20100;-65
2021/05/22 00:49:34;;;;;;;6.23;4.57;;;;;;;18.90;58.76;99604.81;2073970;28;20025;-65
2021/05/22 00:50:41;;;;;;;6.87;5.07;;;;;;;18.88;58.78;99602.25;2078723;28;20076;-65
2021/05/22 00:51:42;;;;;;;6.75;4.70;;;;;;;18.88;58.76;99602.25;2077781;28;20480;-65
2021/05/22 00:52:43;;;;;;;6.82;5.03;;;;;;;18.89;58.72;99603.09;2078722;28;20037;-65
2021/05/22 00:53:43;;;;;;;5.50;4.50;;;;;;;18.89;58.85;99603.97;2078215;28;20110;-65
2021/05/22 00:54:44;;;;;;;7.90;5.00;;;;;;;18.89;58.81;99595.78;2075700;28;20364;-65
2021/05/22 00:55:45;;;;;;;6.80;5.33;;;;;;;18.88;58.77;99604.13;2072332;28;20113;-65
2021/05/22 00:56:47;;;;;;;6.82;5.15;;;;;;;18.88;58.91;99607.69;2076674;28;20040;-65
2021/05/22 00:57:48;;;;;;;6.43;4.70;;;;;;;18.90;58.96;99615.75;2073039;28;20148;-66
2021/05/22 00:58:48;;;;;;;9.07;5.87;;;;;;;18.90;58.75;99615.75;2081729;28;20483;-65
2021/05/22 00:59:49;;;;;;;5.80;4.40;;;;;;;18.89;58.83;99619.47;2077635;28;20021;-65
2021/05/22 01:00:51;;;;;;;6.30;4.57;;;;;;;18.89;58.81;99614.03;2080054;28;20524;-65
2021/05/22 01:01:51;;;;;;;7.22;4.82;;;;;;;18.89;58.76;99617.63;2080550;28;20037;-65
2021/05/22 01:02:52;;;;;;;6.60;4.57;;;;;;;18.90;58.56;99622.06;2080286;28;20091;-65
2021/05/22 01:03:53;;;;;;;6.23;4.40;;;;;;;18.90;58.71;99613.88;2079777;28;20624;-65
2021/05/22 01:04:56;;;;;;;6.03;3.92;;;;;;;18.89;58.72;99603.09;2075814;28;20052;-65
2021/05/22 01:06:18;;;;;;;6.22;4.53;;;;;;;18.88;58.83;99609.59;2085708;28;20056;-65
2021/05/22 01:07:19;;;;;;;5.95;4.78;;;;;;;18.87;58.85;99608.75;2076276;28;20112;-65
2021/05/22 01:08:25;;;;;;;6.67;5.00;;;;;;;18.89;58.90;99614.03;2074505;28;20089;-65
2021/05/22 01:09:27;;;;;;;8.32;5.15;;;;;;;18.88;58.82;99606.84;2076633;28;20121;-66
2021/05/22 01:10:27;;;;;;;6.68;4.88;;;;;;;18.89;58.85;99611.28;2074114;28;20042;-65
2021/05/22 01:11:32;;;;;;;5.33;3.77;;;;;;;18.88;58.88;99612.31;2080237;28;20041;-65
2021/05/22 01:12:37;;;;;;;6.72;4.22;;;;;;;18.87;58.74;99610.63;2083947;28;20596;-65
2021/05/22 01:13:39;;;;;;;5.70;4.25;;;;;;;18.88;58.72;99601.41;2072249;28;20044;-65
2021/05/22 01:14:52;;;;;;;;;;;;;;;18.81;58.91;99602.06;2079618;28;20025;-65
2021/05/22 01:15:55;;;;;;;6.50;4.97;;;;;;;18.83;59.07;99597.25;2079529;28;19917;-65
2021/05/22 01:16:57;;;;;;;7.50;5.05;;;;;;;18.83;58.96;99589.06;2079848;28;20042;-65
2021/05/22 01:17:57;;;;;;;6.03;4.90;;;;;;;18.84;58.91;99600.88;2078770;28;20041;-65
2021/05/22 01:19:00;;;;;;;6.07;4.60;;;;;;;18.84;58.90;99601.72;2079372;28;20060;-65
2021/05/22 01:20:01;;;;;;;6.30;4.65;;;;;;;18.86;58.91;99598.81;2071826;28;20873;-65
2021/05/22 01:21:03;;;;;;;5.57;4.53;;;;;;;18.87;58.80;99607.88;2076274;28;20408;-65
2021/05/22 01:22:05;;;;;;;5.80;4.65;;;;;;;18.84;58.85;99601.72;2079568;28;20032;-65
2021/05/22 01:23:21;;;;;;;;;;;;;;;18.83;58.91;99600.00;2078094;28;20615;-65
2021/05/22 01:24:23;;;;;;;6.32;4.47;;;;;;;18.81;58.96;99599.31;2079388;28;20462;-65
2021/05/22 01:25:39;;;;;;;5.20;4.40;;;;;;;18.81;59.06;99596.59;2070413;28;20082;-65
2021/05/22 01:26:41;;;;;;;5.65;4.20;;;;;;;18.82;58.96;99598.28;2075967;28;20044;-65
2021/05/22 01:27:41;;;;;;;5.72;4.28;;;;;;;18.83;58.98;99602.72;2078159;28;20029;-65
2021/05/22 01:28:44;;;;;;;6.17;5.03;;;;;;;18.85;58.93;99608.03;2080200;28;20033;-65
2021/05/22 01:29:45;;;;;;;5.90;4.30;;;;;;;18.85;58.85;99614.34;2079625;28;20033;-65
2021/05/22 01:30:47;;;;;;;5.43;4.23;;;;;;;18.83;58.86;99604.59;2079829;28;20029;-65
2021/05/22 01:31:47;;;;;;;5.25;4.53;;;;;;;18.85;58.84;99603.41;2079821;28;20033;-65
2021/05/22 01:32:48;;;;;;;6.33;4.50;;;;;;;18.86;58.93;99598.81;2079087;28;20021;-65
2021/05/22 01:33:49;;;;;;;6.70;4.53;;;;;;;18.85;58.78;99597.97;2079505;28;20060;-65
2021/05/22 01:34:49;;;;;;;5.17;4.07;;;;;;;18.84;58.99;99596.25;2080114;28;20498;-66
2021/05/22 01:35:50;;;;;;;6.47;4.60;;;;;;;18.87;58.96;99588.78;2080048;28;20029;-65
2021/05/22 01:36:51;;;;;;;6.20;4.23;;;;;;;18.85;58.84;99594.38;2070418;28;20109;-65
2021/05/22 01:37:51;;;;;;;5.67;4.57;;;;;;;18.84;58.77;99589.94;2071687;28;20033;-65
2021/05/22 01:38:51;;;;;;;6.43;4.37;;;;;;;18.85;58.88;99592.50;2078762;28;20021;-65
2021/05/22 01:39:52;;;;;;;4.97;3.67;;;;;;;18.84;58.85;99593.53;2079333;28;20033;-65
2021/05/22 01:40:52;;;;;;;6.13;4.17;;;;;;;18.86;58.98;99598.81;2080020;28;20061;-65
2021/05/22 01:41:53;;;;;;;5.90;4.53;;;;;;;18.85;58.89;99597.09;2076901;28;20090;-65
2021/05/22 01:42:54;;;;;;;4.70;3.83;;;;;;;18.85;58.96;99602.56;2071851;28;20057;-65
2021/05/22 01:43:58;;;;;;;5.07;4.23;;;;;;;18.83;58.98;99591.78;2077324;28;20159;-65
2021/05/22 01:45:01;;;;;;;6.10;4.53;;;;;;;18.83;58.87;99602.72;2079394;28;20428;-66
2021/05/22 01:46:02;;;;;;;5.38;4.32;;;;;;;18.84;59.00;99595.41;2078007;28;20033;-65
2021/05/22 01:47:05;;;;;;;6.22;4.50;;;;;;;18.81;59.12;99585.66;2077352;28;20244;-65
2021/05/22 01:48:07;;;;;;;5.18;4.00;;;;;;;18.84;58.89;99598.13;2080074;28;20428;-65
2021/05/22 01:49:09;;;;;;;6.03;4.15;;;;;;;18.83;59.15;99591.78;2078868;28;20082;-65
2021/05/22 01:50:13;;;;;;;5.30;4.38;;;;;;;18.85;58.88;99595.22;2079194;28;20021;-65
2021/05/22 01:51:16;;;;;;;6.05;4.57;;;;;;;18.84;58.93;99593.53;2079992;28;20026;-65
2021/05/22 01:52:22;;;;;;;5.57;4.55;;;;;;;18.83;58.87;99594.53;2079957;28;20033;-65
2021/05/22 01:53:22;;;;;;;6.10;4.60;;;;;;;18.84;59.05;99589.94;2079853;28;20673;-65
2021/05/22 01:54:24;;;;;;;6.53;4.87;;;;;;;18.85;59.05;99588.91;2070750;28;20492;-65
2021/05/22 01:55:25;;;;;;;6.70;3.97;;;;;;;18.83;58.88;99591.78;2067470;28;20042;-65
2021/05/22 01:56:26;;;;;;;5.10;3.88;;;;;;;18.84;58.95;99590.81;2079920;28;20036;-65
2021/05/22 01:57:27;;;;;;;8.50;4.60;;;;;;;18.83;58.94;99578.16;2078749;28;20030;-65
2021/05/22 01:58:27;;;;;;;6.53;4.33;;;;;;;18.82;59.04;99570.97;2079110;28;20374;-66
2021/05/22 01:59:28;;;;;;;6.47;4.40;;;;;;;18.82;58.88;99570.13;2079836;28;20120;-65
2021/05/22 02:00:29;;;;;;;7.03;4.28;;;;;;;18.82;59.00;99570.97;2079308;28;20449;-66
2021/05/22 02:01:30;;;;;;;5.97;3.93;;;;;;;18.82;59.03;99573.72;2080013;28;20041;-65
2021/05/22 02:02:31;;;;;;;6.50;4.50;;;;;;;18.82;58.88;99581.91;2079495;28;20492;-65
2021/05/22 02:03:35;;;;;;;7.03;4.17;;;;;;;18.81;58.93;99580.22;2080722;28;20473;-65
2021/05/22 02:04:44;;;;;;;4.63;3.95;;;;;;;18.82;58.96;99581.06;2081798;28;20071;-65
2021/05/22 02:05:47;;;;;;;5.90;3.95;;;;;;;18.82;59.00;99581.91;2078644;28;20128;-65
2021/05/22 02:06:50;;;;;;;5.82;3.67;;;;;;;18.81;58.89;99574.75;2075778;28;20088;-66
2021/05/22 02:07:55;;;;;;;5.85;4.60;;;;;;;18.82;59.03;99576.44;2079585;28;20029;-65
2021/05/22 02:08:58;;;;;;;5.82;4.38;;;;;;;18.81;58.93;99572.00;2079603;28;20055;-65
2021/05/22 02:10:00;;;;;;;6.35;4.38;;;;;;;18.81;58.94;99579.31;2079368;28;20053;-65
2021/05/22 02:11:01;;;;;;;5.63;4.07;;;;;;;18.82;58.98;99575.59;2078488;28;20579;-65
2021/05/22 02:12:03;;;;;;;5.57;3.97;;;;;;;18.81;58.93;99568.41;2077561;28;20424;-65
2021/05/22 02:13:04;;;;;;;5.63;4.13;;;;;;;18.81;58.87;99572.00;2079790;28;20082;-65
2021/05/22 02:14:07;;;;;;;6.60;4.57;;;;;;;18.81;59.05;99573.88;2079109;28;20031;-65
2021/05/22 02:15:11;;;;;;;5.78;4.05;;;;;;;18.80;58.91;99567.56;2077628;28;20033;-65
2021/05/22 02:16:14;;;;;;;5.47;4.32;;;;;;;18.80;58.95;99583.94;2079464;28;20040;-65
2021/05/22 02:17:19;;;;;;;5.38;4.05;;;;;;;18.81;59.02;99582.94;2079235;28;20082;-65
2021/05/22 02:18:20;;;;;;;5.50;3.60;;;;;;;18.81;59.02;99584.78;2069733;28;20038;-65
2021/05/22 02:19:23;;;;;;;5.75;4.30;;;;;;;18.82;58.95;99590.09;2071187;28;20519;-65
2021/05/22 02:20:25;;;;;;;5.68;3.92;;;;;;;18.81;59.05;99582.94;2076385;28;20033;-65
2021/05/22 02:21:29;;;;;;;6.47;4.65;;;;;;;18.82;58.86;99581.91;2076622;28;20087;-65
2021/05/22 02:22:32;;;;;;;5.90;3.72;;;;;;;18.81;58.93;99582.94;2079505;28;20029;-65
2021/05/22 02:23:35;;;;;;;5.78;4.63;;;;;;;18.82;58.59;99586.53;2077761;28;20056;-65
2021/05/22 02:24:37;;;;;;;6.07;4.65;;;;;;;18.82;59.02;99583.78;2078980;28;20044;-65
2021/05/22 02:25:37;;;;;;;5.15;3.97;;;;;;;18.82;59.08;99581.06;2082800;28;20399;-65
2021/05/22 02:26:39;;;;;;;5.83;3.80;;;;;;;18.80;59.00;99581.19;2079258;28;20057;-65
2021/05/22 02:27:40;;;;;;;5.57;4.75;;;;;;;18.81;59.09;99577.47;2079361;28;20099;-65
2021/05/22 02:28:42;;;;;;;6.27;4.30;;;;;;;18.82;58.91;99581.06;2079092;28;20067;-65
2021/05/22 02:29:45;;;;;;;5.55;3.90;;;;;;;18.80;59.13;99566.69;2069794;28;20285;-65
2021/05/22 02:30:46;;;;;;;4.68;3.60;;;;;;;18.80;59.03;99562.09;2072190;28;20466;-65
2021/05/22 02:31:49;;;;;;;5.82;4.25;;;;;;;18.80;58.90;99562.09;2078950;28;20033;-65
2021/05/22 02:32:51;;;;;;;5.82;4.28;;;;;;;18.80;59.06;99559.34;2083672;28;20100;-65
2021/05/22 02:33:54;;;;;;;5.20;4.22;;;;;;;18.81;59.01;99563.81;2070331;28;20034;-65
2021/05/22 02:34:57;;;;;;;7.35;4.38;;;;;;;18.79;58.94;99563.13;2069842;28;20029;-65
2021/05/22 02:35:59;;;;;;;4.88;3.65;;;;;;;18.79;59.25;99562.25;2078165;28;20029;-65
2021/05/22 02:37:01;;;;;;;5.38;4.10;;;;;;;18.80;58.99;99564.81;2077557;28;20120;-65
2021/05/22 02:38:03;;;;;;;6.20;4.07;;;;;;;18.80;58.92;99563.97;2079272;28;20037;-65
2021/05/22 02:39:03;;;;;;;;;;;;;;;18.76;59.10;99557.97;2080260;28;20033;-65
2021/05/22 02:40:16;;;;;;;5.43;4.10;;;;;;;18.76;59.24;99554.38;2077453;28;19920;-65
2021/05/22 02:41:19;;;;;;;4.65;3.60;;;;;;;18.75;59.16;99550.75;2074477;28;20079;-65
2021/05/22 02:42:21;;;;;;;5.15;4.03;;;;;;;18.77;59.19;99556.97;2079238;28;20472;-65
2021/05/22 02:43:24;;;;;;;4.88;4.25;;;;;;;18.76;59.10;99551.66;2077472;28;20045;-65
2021/05/22 02:44:27;;;;;;;5.32;3.65;;;;;;;18.77;59.02;99562.41;2079389;28;20570;-65
2021/05/22 02:45:28;;;;;;;5.07;3.15;;;;;;;18.77;59.02;99562.41;2073403;28;20561;-65
2021/05/22 02:46:34;;;;;;;6.00;4.47;;;;;;;18.78;59.11;99564.13;2073145;28;20065;-65
2021/05/22 02:47:35;;;;;;;5.00;3.92;;;;;;;18.79;59.20;99565.84;2071177;28;20042;-65
2021/05/22 02:48:37;;;;;;;4.83;3.70;;;;;;;18.78;59.20;99569.59;2075838;28;20492;-65
2021/05/22 02:49:42;;;;;;;5.13;3.60;;;;;;;18.78;59.07;99564.13;2078172;28;20280;-65
2021/05/22 02:50:45;;;;;;;5.80;4.07;;;;;;;18.77;59.12;99565.16;2078401;28;20108;-65
2021/05/22 02:51:48;;;;;;;5.80;3.70;;;;;;;18.78;59.08;99569.59;2079452;28;20033;-65
2021/05/22 02:52:49;;;;;;;7.25;4.35;;;;;;;18.78;59.08;99569.59;2078709;28;20116;-65
2021/05/22 02:53:51;;;;;;;4.75;3.90;;;;;;;18.77;59.19;99573.34;2075753;28;20506;-66
2021/05/22 02:54:53;;;;;;;5.32;3.70;;;;;;;18.77;59.02;99562.41;2077476;28;20062;-65
2021/05/22 02:55:55;;;;;;;6.03;3.38;;;;;;;18.78;59.13;99569.59;2076335;28;20048;-65
2021/05/22 02:56:57;;;;;;;4.78;3.55;;;;;;;18.78;59.13;99558.66;2078451;28;20036;-65
2021/05/22 02:57:59;;;;;;;5.78;4.15;;;;;;;18.78;59.01;99564.13;2079149;28;20488;-65
2021/05/22 02:59:01;;;;;;;6.32;4.07;;;;;;;18.79;59.14;99554.94;2077942;28;20126;-65
2021/05/22 03:00:03;;;;;;;5.40;3.50;;;;;;;18.77;59.04;99556.97;2079148;28;20033;-65
2021/05/22 03:01:04;;;;;;;5.28;4.43;;;;;;;18.77;59.11;99551.50;2069392;28;20029;-65
2021/05/22 03:02:06;;;;;;;5.60;4.17;;;;;;;18.78;59.11;99550.47;2071366;28;20036;-65
2021/05/22 03:03:07;;;;;;;4.72;3.72;;;;;;;18.78;58.86;99550.47;2072629;28;20057;-65
2021/05/22 03:04:08;;;;;;;4.90;3.53;;;;;;;18.77;59.06;99546.03;2069171;28;20085;-65
2021/05/22 03:05:09;;;;;;;4.50;3.70;;;;;;;18.78;59.12;99547.72;2078288;28;20030;-65
2021/05/22 03:06:10;;;;;;;5.20;3.80;;;;;;;18.75;59.15;99545.31;2070405;28;20425;-65
2021/05/22 03:07:11;;;;;;;5.63;4.00;;;;;;;18.77;59.13;99546.03;2068438;28;20048;-65
2021/05/22 03:08:11;;;;;;;5.13;3.83;;;;;;;18.76;59.26;99533.38;2078857;28;20037;-64
2021/05/22 03:09:12;;;;;;;5.73;4.60;;;;;;;18.77;59.18;99532.38;2075299;28;20038;-65
2021/05/22 03:10:14;;;;;;;4.27;3.13;;;;;;;18.76;59.19;99533.38;2072376;28;20128;-65
2021/05/22 03:11:17;;;;;;;4.20;3.50;;;;;;;18.77;59.08;99529.66;2068443;28;20030;-65
2021/05/22 03:12:27;;;;;;;5.78;3.83;;;;;;;18.76;59.10;99530.66;2071827;28;20485;-65
2021/05/22 03:13:27;;;;;;;5.88;4.05;;;;;;;18.76;59.15;99530.66;2069244;28;20033;-65
2021/05/22 03:14:28;;;;;;;5.17;3.60;;;;;;;18.77;59.05;99523.34;2070442;28;20032;-65
2021/05/22 03:15:28;;;;;;;7.23;4.63;;;;;;;18.76;59.12;99533.38;2074054;28;20117;-65
2021/05/22 03:16:29;;;;;;;7.23;3.90;;;;;;;18.76;59.05;99538.84;2069736;28;20300;-65
2021/05/22 03:17:29;;;;;;;3.70;2.90;;;;;;;18.77;59.18;99537.84;2070980;28;20037;-65
2021/05/22 03:18:30;;;;;;;6.23;3.97;;;;;;;18.78;59.09;99541.44;2071329;28;20029;-65
2021/05/22 03:19:30;;;;;;;4.50;3.80;;;;;;;18.76;59.19;99547.03;2068440;28;20030;-65
2021/05/22 03:20:31;;;;;;;4.57;3.47;;;;;;;18.77;59.19;99546.03;2070738;28;20049;-65
2021/05/22 03:21:31;;;;;;;6.13;4.30;;;;;;;18.76;59.12;99547.03;2071825;28;20062;-65
2021/05/22 03:22:33;;;;;;;5.70;4.10;;;;;;;18.77;59.20;99545.19;2070404;28;20706;-65
2021/05/22 03:23:33;;;;;;;4.75;3.95;;;;;;;18.77;59.12;99546.03;2070429;28;20033;-65
2021/05/22 03:24:34;;;;;;;4.17;3.53;;;;;;;18.78;58.96;99557.81;2070356;28;20044;-65
2021/05/22 03:25:34;;;;;;;3.97;2.93;;;;;;;18.78;58.99;99552.34;2070702;28;20030;-65
2021/05/22 03:26:36;;;;;;;4.83;3.33;;;;;;;18.77;59.21;99554.22;2069208;28;20050;-65
2021/05/22 03:27:37;;;;;;;4.85;3.63;;;;;;;18.77;59.04;99550.66;2070418;28;20057;-66
2021/05/22 03:28:38;;;;;;;6.47;4.18;;;;;;;18.77;59.18;99561.56;2070832;28;20080;-65
2021/05/22 03:29:38;;;;;;;5.23;3.23;;;;;;;18.76;59.08;99554.38;2069973;28;20088;-65
2021/05/22 03:30:38;;;;;;;4.73;4.03;;;;;;;18.76;59.02;99552.50;2070810;28;20113;-65
2021/05/22 03:31:39;;;;;;;5.13;3.80;;;;;;;18.75;59.13;99553.50;2069792;28;20025;-65
2021/05/22 03:32:39;;;;;;;5.90;3.63;;;;;;;18.75;59.13;99542.56;2073467;28;20033;-65
2021/05/22 03:33:40;;;;;;;5.43;3.90;;;;;;;18.74;59.21;99540.88;2070962;28;20032;-65
2021/05/22 03:34:41;;;;;;;4.47;3.70;;;;;;;18.74;59.40;99538.16;2068411;28;20026;-65
2021/05/22 03:35:42;;;;;;;4.95;3.88;;;;;;;18.75;59.13;99539.84;2070215;28;20097;-65
2021/05/22 03:36:43;;;;;;;5.65;4.07;;;;;;;18.74;59.15;99545.44;2070124;28;20041;-65
2021/05/22 03:37:43;;;;;;;5.77;3.50;;;;;;;18.75;59.20;99548.03;2070674;28;20022;-66
2021/05/22 03:38:44;;;;;;;4.60;3.50;;;;;;;18.75;59.19;99552.66;2070560;28;20125;-65
2021/05/22 03:39:46;;;;;;;6.83;4.10;;;;;;;18.74;59.06;99546.34;2066584;28;20034;-65
2021/05/22 03:40:47;;;;;;;6.88;3.78;;;;;;;18.75;59.08;99542.56;2069725;28;20026;-65
2021/05/22 03:41:47;;;;;;;5.47;4.23;;;;;;;18.76;59.11;99544.31;2070066;28;20022;-65
2021/05/22 03:42:48;;;;;;;7.00;3.87;;;;;;;18.75;59.10;99545.31;2066265;28;20709;-65
2021/05/22 03:43:48;;;;;;;5.53;3.63;;;;;;;18.74;59.22;99540.88;2075960;28;20036;-65
2021/05/22 03:44:48;;;;;;;4.17;3.20;;;;;;;18.74;58.83;99546.34;2064232;28;20114;-65
2021/05/22 03:45:49;;;;;;;4.10;3.10;;;;;;;18.75;59.03;99545.31;2070572;28;20100;-65
2021/05/22 03:46:50;;;;;;;4.23;3.40;;;;;;;18.74;59.07;99546.34;2070506;28;20053;-65
2021/05/22 03:47:50;;;;;;;5.60;4.03;;;;;;;18.74;59.19;99546.34;2065892;28;20034;-65
2021/05/22 03:48:51;;;;;;;4.93;3.30;;;;;;;18.75;59.25;99552.66;2069687;28;20026;-65
2021/05/22 03:49:51;;;;;;;7.33;4.17;;;;;;;18.75;59.02;99553.50;2070930;28;20123;-65
2021/05/22 03:50:52;;;;;;;4.30;3.50;;;;;;;18.75;59.10;99560.84;2066394;28;20102;-65
2021/05/22 03:51:52;;;;;;;6.33;3.57;;;;;;;18.75;59.08;99558.09;2063955;28;20034;-65
2021/05/22 03:52:53;;;;;;;5.57;3.40;;;;;;;18.74;59.09;99557.25;2069261;28;20029;-66
2021/05/22 03:53:53;;;;;;;4.93;3.13;;;;;;;18.76;59.12;99549.75;2078809;28;20033;-65
2021/05/22 03:54:53;;;;;;;4.70;3.53;;;;;;;18.75;59.18;99541.72;2070481;28;20648;-65
2021/05/22 03:55:54;;;;;;;4.43;3.37;;;;;;;18.74;59.14;99535.41;2065899;28;20507;-65
2021/05/22 03:56:55;;;;;;;5.03;3.70;;;;;;;18.73;59.07;99533.69;2057978;28;20034;-65
2021/05/22 03:57:55;;;;;;;5.20;3.47;;;;;;;18.74;59.11;99535.41;2070332;28;20068;-65
2021/05/22 03:58:56;;;;;;;4.43;3.20;;;;;;;18.75;59.10;99541.72;2070038;28;20079;-66
2021/05/22 03:59:56;;;;;;;5.43;3.60;;;;;;;18.75;59.02;99539.84;2070732;28;20033;-65
2021/05/22 04:00:57;;;;;;;4.33;3.17;;;;;;;18.76;59.16;99548.91;2061687;28;20030;-65
2021/05/22 04:01:57;;;;;;;4.27;3.30;;;;;;;18.75;59.07;99542.56;2061958;28;20021;-65
2021/05/22 04:02:58;;;;;;;4.87;3.57;;;;;;;18.75;59.00;99536.25;2070657;28;20033;-65
2021/05/22 04:03:58;;;;;;;6.40;3.83;;;;;;;18.74;59.15;99535.41;2068632;28;20032;-65
2021/05/22 04:04:59;;;;;;;4.57;3.20;;;;;;;18.75;59.14;99541.72;2068648;28;20496;-65
2021/05/22 04:05:59;;;;;;;5.23;3.97;;;;;;;18.74;59.09;99540.88;2063869;28;20034;-65
2021/05/22 04:07:00;;;;;;;8.47;3.77;;;;;;;18.74;59.13;99534.53;2063228;28;20105;-65
2021/05/22 04:08:02;;;;;;;4.33;3.43;;;;;;;18.74;59.22;99538.16;2070869;28;20109;-65
2021/05/22 04:09:03;;;;;;;4.85;3.28;;;;;;;18.74;59.07;99535.41;2067743;28;20065;-65
2021/05/22 04:10:05;;;;;;;6.95;4.22;;;;;;;18.74;59.09;99537.25;2069380;28;20492;-65
2021/05/22 04:11:05;;;;;;;5.07;4.15;;;;;;;18.72;59.16;99542.91;2070171;28;20044;-65
2021/05/22 04:12:06;;;;;;;5.00;3.43;;;;;;;18.74;59.22;99551.78;2069886;28;20571;-65
2021/05/22 04:13:07;;;;;;;5.90;3.33;;;;;;;18.73;59.25;99547.34;2070661;28;20115;-65
2021/05/22 04:14:07;;;;;;;5.20;3.23;;;;;;;18.74;59.14;99551.78;2068992;28;20105;-65
2021/05/22 04:15:08;;;;;;;5.20;3.23;;;;;;;18.74;59.12;99556.38;2068089;28;20707;-65
2021/05/22 04:16:09;;;;;;;4.07;3.25;;;;;;;18.74;59.05;99557.25;2069366;28;20224;-65
2021/05/22 04:17:09;;;;;;;5.27;3.77;;;;;;;18.73;59.14;99555.53;2070337;28;20061;-66
2021/05/22 04:18:10;;;;;;;4.57;3.30;;;;;;;18.74;59.08;99550.91;2070535;28;20034;-65
2021/05/22 04:19:10;;;;;;;5.33;3.90;;;;;;;18.73;59.08;99550.06;2070011;28;20030;-65
2021/05/22 04:20:11;;;;;;;4.63;3.07;;;;;;;18.73;59.06;99544.59;2066477;28;20181;-65
2021/05/22 04:21:12;;;;;;;5.67;3.57;;;;;;;18.72;59.05;99540.16;2069257;28;20125;-65
2021/05/22 04:22:12;;;;;;;5.20;3.43;;;;;;;18.72;59.26;99551.09;2064432;28;20038;-65
2021/05/22 04:23:13;;;;;;;4.10;3.70;;;;;;;18.71;59.06;99538.44;2071488;28;20037;-65
2021/05/22 04:24:15;;;;;;;4.23;3.17;;;;;;;18.73;59.23;99541.03;2064394;28;20030;-65
2021/05/22 04:25:15;;;;;;;4.80;3.42;;;;;;;18.73;59.26;99555.53;2068323;28;20318;-65
2021/05/22 04:26:15;;;;;;;5.30;3.10;;;;;;;18.71;59.25;99557.56;2071012;28;20041;-65
2021/05/22 04:27:16;;;;;;;5.37;3.03;;;;;;;18.72;58.99;99558.44;2067758;28;20029;-65
2021/05/22 04:28:17;;;;;;;4.37;3.27;;;;;;;18.72;59.23;99566.63;2063128;28;20049;-65
2021/05/22 04:29:17;;;;;;;5.53;3.43;;;;;;;18.72;59.10;99569.34;2064833;28;20448;-65
2021/05/22 04:30:18;;;;;;;5.70;3.67;;;;;;;18.71;59.21;99568.47;2070414;28;20029;-65
2021/05/22 04:31:18;;;;;;;3.70;2.85;;;;;;;18.72;59.16;99570.22;2069385;28;20064;-65
2021/05/22 04:32:19;;;;;;;5.63;3.90;;;;;;;18.72;59.07;99578.41;2070501;28;20045;-65
2021/05/22 04:33:19;;;;;;;6.27;3.73;;;;;;;18.71;59.20;99573.94;2070010;28;20037;-65
2021/05/22 04:34:20;;;;;;;4.37;3.33;;;;;;;18.72;59.14;99575.66;2069633;28;20037;-65
2021/05/22 04:35:21;;;;;;;4.90;3.63;;;;;;;18.72;59.28;99572.09;2070587;28;20029;-65
2021/05/22 04:36:21;;;;;;;4.97;3.70;;;;;;;18.72;59.08;99581.13;2066883;28;20025;-65
2021/05/22 04:37:22;;;;;;;4.70;3.20;;;;;;;18.72;59.26;99572.94;2061744;28;20057;-65
2021/05/22 04:38:22;;;;;;;4.27;3.33;;;;;;;18.74;59.20;99572.75;2065412;28;20108;-64
2021/05/22 04:39:23;;;;;;;5.73;2.93;;;;;;;18.73;59.16;99577.38;2063141;28;20030;-64
2021/05/22 04:40:24;;;;;;;5.73;3.60;;;;;;;18.71;59.20;99576.66;2067156;28;20038;-65
2021/05/22 04:41:24;;;;;;;8.20;3.40;;;;;;;18.73;59.25;99571.06;2057455;28;20134;-65
2021/05/22 04:42:25;;;;;;;5.67;3.67;;;;;;;18.72;59.29;99567.47;2055912;28;20118;-65
2021/05/22 04:43:25;;;;;;;4.60;3.57;;;;;;;18.71;59.31;99560.28;2062617;28;20046;-66
2021/05/22 04:44:25;;;;;;;4.93;3.33;;;;;;;18.71;59.45;99560.28;2062443;28;20018;-65
2021/05/22 04:45:26;;;;;;;5.07;3.63;;;;;;;18.70;59.41;99550.38;2062826;28;20030;-65
2021/05/22 04:46:27;;;;;;;6.03;3.53;;;;;;;18.70;59.49;99549.53;2066272;28;20032;-65
2021/05/22 04:47:27;;;;;;;5.13;3.30;;;;;;;18.70;59.26;99560.47;2070215;28;20101;-65
2021/05/22 04:48:28;;;;;;;3.73;2.80;;;;;;;18.70;59.29;99558.59;2070033;28;20113;-65
2021/05/22 04:49:28;;;;;;;7.93;3.23;;;;;;;18.69;59.45;99559.63;2064690;28;20092;-65
2021/05/22 04:50:30;;;;;;;6.33;2.97;;;;;;;18.69;59.37;99559.63;2064707;28;20029;-65